• Join FlightAware (Why Join?)
  • Login
  • US Flag 
07:54AM EST


 

Airport Tracker/Info


-or-


 

Live Flight TrackerFlight Track Log ✈ SWA240 ✈ 21-Oct-2013 ✈ KPVD - KMCO

Flight Track Log - Related Links

Times and Time Zones

All times are in EDT time to prevent confusion due to time zone crossing. See the SWA240 flight status page for this flight to view local times or setup timezone preferences in your user account.

Time Position Orientation Groundspeed Altitude Reporting Facility
EDT Latitude Longitude Course Direction KTS MPH feet Rate Location/Type
07:39AM 41.6610 -71.4220 144° Southeast 235 270 2,800  Level FlightAware
07:40AM 41.6440 -71.4050 143° Southeast 238 274 3,900 3,420 Climbing FlightAware
07:40AM 41.6360 -71.3990 151° Southeast 237 273 4,400 2,820 Climbing FlightAware
07:40AM 41.6220 -71.3930 162° South 251 289 4,900 2,160 Climbing FlightAware
07:40AM 41.5980 -71.3870 169° South 273 314 5,600 2,880 Climbing FlightAware
07:41AM 41.5720 -71.3790 167° South 277 319 6,900 3,180 Climbing FlightAware
07:41AM 41.5410 -71.3690 166° South 291 335 8,000 3,000 Climbing FlightAware
07:41AM 41.5150 -71.3610 167° South 296 341 9,100 2,880 Climbing FlightAware
07:42AM 41.4700 -71.3450 165° South 319 367 10,500 1,860 Climbing FlightAware
07:43AM 41.4130 -71.3260 166° South 363 418 11,300 1,740 Climbing FlightAware
07:43AM 41.3580 -71.3080 166° South 382 440 12,600 2,460 Climbing FlightAware
07:44AM 41.2900 -71.2860 166° South 400 460 14,300 2,760 Climbing FlightAware
07:44AM 41.2350 -71.2680 166° South 402 463 15,700 2,640 Climbing FlightAware
07:45AM 41.1890 -71.2770 188° South 380 437 16,800 2,520 Climbing FlightAware
07:45AM 41.1700 -71.2910 209° Southwest 374 430 17,300 2,340 Climbing FlightAware
07:45AM 41.1510 -71.3150 224° Southwest 368 423 17,900 2,220 Climbing FlightAware
07:45AM 41.1390 -71.3390 236° Southwest 366 421 18,400 2,580 Climbing FlightAware
07:46AM 41.1140 -71.4110 245° Southwest 365 420 20,000 2,640 Climbing FlightAware
07:47AM 41.0900 -71.4760 244° Southwest 366 421 21,400 2,220 Climbing FlightAware
07:47AM 41.0630 -71.5510 244° Southwest 372 428 22,600 1,800 Climbing FlightAware
07:48AM 41.0370 -71.6240 245° Southwest 381 438 23,600 1,800 Climbing FlightAware
07:48AM 41.0110 -71.6780 237° Southwest 390 449 24,500 1,860 Climbing FlightAware
07:49AM 40.9700 -71.7370 227° Southwest 395 455 25,500 1,680 Climbing FlightAware
07:49AM 40.9240 -71.8030 227° Southwest 401 461 26,500 1,500 Climbing FlightAware
07:50AM 40.8800 -71.8670 228° Southwest 405 466 27,300 1,620 Climbing FlightAware
07:51AM 40.8360 -71.9300 227° Southwest 401 461 28,500 1,980 Climbing FlightAware
07:51AM 40.7900 -71.9950 227° Southwest 395 455 29,700 1,860 Climbing FlightAware
07:52AM 40.7490 -72.0540 227° Southwest 391 450 30,700 1,860 Climbing FlightAware
07:52AM 40.7080 -72.1120 227° Southwest 384 442 31,800 1,800 Climbing FlightAware
07:53AM 40.6610 -72.1780 227° Southwest 375 432 32,900 1,680 Climbing FlightAware
07:53AM 40.6240 -72.2310 227° Southwest 370 426 33,800 1,380 Climbing FlightAware
07:54AM 40.5810 -72.2920 227° Southwest 371 427 34,500 960 Climbing FlightAware
07:55AM 40.5410 -72.3490 227° Southwest 372 428 35,000 840 Climbing FlightAware
07:55AM 40.5020 -72.4040 227° Southwest 374 430 35,500 840 Climbing FlightAware
07:56AM 40.4610 -72.4610 227° Southwest 375 432 36,000 360 Climbing FlightAware
07:56AM 40.4180 -72.5220 227° Southwest 376 433 36,000  Level FlightAware
07:57AM 40.3790 -72.5770 227° Southwest 376 433 36,000  Level FlightAware
07:58AM 40.3370 -72.6350 226° Southwest 375 432 36,000  Level FlightAware
07:58AM 40.2930 -72.6960 227° Southwest 374 430 36,000  Level FlightAware
07:59AM 40.2510 -72.7550 227° Southwest 373 429 36,000  Level FlightAware
07:59AM 40.2100 -72.8120 227° Southwest 374 430 36,000  Level FlightAware
08:00AM 40.1720 -72.8650 227° Southwest 372 428 36,000  Level FlightAware
08:01AM 40.1260 -72.9300 227° Southwest 371 427 36,000  Level FlightAware
08:01AM 40.0950 -72.9720 226° Southwest 369 425 36,000  Level FlightAware
08:02AM 40.0450 -73.0410 227° Southwest 368 423 36,000  Level FlightAware
08:02AM 40.0100 -73.0900 227° Southwest 367 422 36,000  Level FlightAware
08:03AM 39.9650 -73.1520 227° Southwest 367 422 36,000  Level FlightAware
08:03AM 39.9270 -73.2040 226° Southwest 367 422 36,000  Level FlightAware
08:04AM 39.8920 -73.2520 226° Southwest 367 422 36,000  Level FlightAware
08:04AM 39.8490 -73.3120 227° Southwest 366 421 36,000  Level FlightAware
08:05AM 39.8060 -73.3700 226° Southwest 366 421 36,000  Level FlightAware
08:06AM 39.7690 -73.4200 226° Southwest 366 421 36,000  Level FlightAware
08:06AM 39.7250 -73.4800 226° Southwest 366 421 36,000  Level FlightAware
08:07AM 39.6840 -73.5350 226° Southwest 364 419 36,000  Level FlightAware
08:07AM 39.6420 -73.5920 226° Southwest 364 419 36,000  Level FlightAware
08:08AM 39.6070 -73.6400 227° Southwest 364 419 36,000  Level FlightAware
08:09AM 39.5570 -73.6920 219° Southwest 373 429 36,000  Level FlightAware
08:09AM 39.5060 -73.7420 217° Southwest 372 428 36,000  Level FlightAware
08:10AM 39.4630 -73.7850 218° Southwest 373 429 36,000  Level FlightAware
08:10AM 39.4130 -73.8340 217° Southwest 373 429 36,000  Level FlightAware
08:11AM 39.3550 -73.8910 217° Southwest 373 429 36,000  Level FlightAware
08:12AM 39.2990 -73.9460 217° Southwest 373 429 36,000  Level FlightAware
08:12AM 39.2520 -73.9930 218° Southwest 374 430 36,000  Level FlightAware
08:13AM 39.2050 -74.0390 217° Southwest 375 432 36,000  Level FlightAware
08:13AM 39.1520 -74.0910 217° Southwest 376 433 36,000  Level FlightAware
08:14AM 39.1050 -74.1370 217° Southwest 376 433 36,000  Level FlightAware
08:15AM 39.0560 -74.1850 217° Southwest 375 432 36,000  Level FlightAware
08:15AM 39.0090 -74.2300 217° Southwest 369 425 36,000  Level FlightAware
08:16AM 38.9710 -74.2670 217° Southwest 369 425 36,000  Level FlightAware
08:16AM 38.9070 -74.3300 217° Southwest 368 423 36,000  Level FlightAware
08:17AM 38.8560 -74.3790 217° Southwest 367 422 36,000  Level FlightAware
08:18AM 38.7960 -74.4360 217° Southwest 366 421 36,000  Level FlightAware
08:18AM 38.7530 -74.4780 217° Southwest 366 421 36,000  Level FlightAware
08:19AM 38.7050 -74.5250 217° Southwest 365 420 36,000  Level FlightAware
08:20AM 38.6440 -74.5830 217° Southwest 364 419 36,000  Level FlightAware
08:20AM 38.5950 -74.6310 217° Southwest 363 418 36,000  Level FlightAware
08:21AM 38.5510 -74.6730 217° Southwest 362 417 36,000  Level FlightAware
08:21AM 38.5090 -74.7130 217° Southwest 367 422 36,000  Level FlightAware
08:22AM 38.4590 -74.7600 216° Southwest 366 421 36,000 600 Level FlightAware
08:23AM 38.4050 -74.8120 217° Southwest 363 418 36,800 960 Climbing FlightAware
08:23AM 38.3560 -74.8580 216° Southwest 361 415 37,300 780 Climbing FlightAware
08:24AM 38.3060 -74.9060 217° Southwest 363 418 37,800 540 Climbing FlightAware
08:24AM 38.2580 -74.9520 217° Southwest 367 422 38,000 120 Climbing FlightAware
08:25AM 38.2070 -75.0000 216° Southwest 363 418 38,000  Level FlightAware
08:26AM 38.1530 -75.0510 217° Southwest 365 420 38,000  Level FlightAware
08:26AM 38.1020 -75.0990 217° Southwest 366 421 38,000  Level FlightAware
08:27AM 38.0530 -75.1450 216° Southwest 367 422 38,000  Level FlightAware
08:27AM 38.0050 -75.1900 216° Southwest 366 421 38,000  Level FlightAware
08:28AM 37.9570 -75.2350 216° Southwest 366 421 38,000  Level FlightAware
08:29AM 37.9020 -75.2860 216° Southwest 370 426 38,000  Level FlightAware
08:29AM 37.8570 -75.3290 217° Southwest 369 425 38,000  Level FlightAware
08:30AM 37.7990 -75.3830 216° Southwest 368 423 38,000  Level FlightAware
08:30AM 37.7510 -75.4280 217° Southwest 368 423 38,000  Level FlightAware
08:31AM 37.7040 -75.4710 216° Southwest 367 422 38,000  Level FlightAware
08:32AM 37.6570 -75.5150 217° Southwest 366 421 38,000  Level FlightAware
08:32AM 37.6080 -75.5600 216° Southwest 366 421 38,000  Level FlightAware
08:33AM 37.5600 -75.6050 217° Southwest 364 419 38,000  Level FlightAware
08:33AM 37.5120 -75.6490 216° Southwest 365 420 38,000  Level FlightAware
08:34AM 37.4550 -75.7020 216° Southwest 365 420 38,000  Level FlightAware
08:35AM 37.4120 -75.7420 216° Southwest 364 419 38,000  Level FlightAware
08:35AM 37.3560 -75.7930 216° Southwest 365 420 38,000  Level FlightAware
08:36AM 37.3050 -75.8400 216° Southwest 364 419 38,000  Level FlightAware
08:37AM 37.2620 -75.8790 216° Southwest 364 419 38,000  Level FlightAware
08:37AM 37.2130 -75.9240 216° Southwest 365 420 38,000  Level FlightAware
08:38AM 37.1570 -75.9750 216° Southwest 364 419 38,000  Level FlightAware
08:38AM 37.1040 -76.0240 216° Southwest 364 419 38,000  Level FlightAware
08:39AM 37.0630 -76.0610 216° Southwest 358 412 38,000  Level FlightAware
08:40AM 37.0160 -76.1030 216° Southwest 358 412 38,000  Level FlightAware
08:40AM 36.9480 -76.1650 216° Southwest 364 419 38,000  Level FlightAware
08:41AM 36.8970 -76.2110 216° Southwest 365 420 38,000  Level FlightAware
08:42AM 36.8460 -76.2570 216° Southwest 365 420 38,000  Level FlightAware
08:42AM 36.7970 -76.3020 216° Southwest 365 420 38,000  Level FlightAware
08:43AM 36.7520 -76.3420 215° Southwest 366 421 38,000  Level FlightAware
08:43AM 36.6980 -76.3910 216° Southwest 367 422 38,000  Level FlightAware
08:44AM 36.6560 -76.4290 216° Southwest 368 423 38,000  Level FlightAware
08:44AM 36.6090 -76.4700 215° Southwest 362 417 38,000  Level FlightAware
08:45AM 36.5620 -76.5130 216° Southwest 362 417 38,000  Level FlightAware
08:46AM 36.5060 -76.5630 216° Southwest 363 418 38,000  Level FlightAware
08:46AM 36.4640 -76.6010 216° Southwest 363 418 38,000  Level FlightAware
08:47AM 36.4150 -76.6440 215° Southwest 362 417 38,000  Level FlightAware
08:47AM 36.3600 -76.6930 216° Southwest 362 417 38,000  Level FlightAware
08:48AM 36.3050 -76.7420 216° Southwest 360 414 38,000  Level FlightAware
08:49AM 36.2560 -76.7850 215° Southwest 359 413 38,000  Level FlightAware
08:49AM 36.2080 -76.8270 215° Southwest 359 413 38,000  Level FlightAware
08:50AM 36.1600 -76.8700 216° Southwest 359 413 38,000  Level FlightAware
08:50AM 36.1120 -76.9120 215° Southwest 358 412 38,000  Level FlightAware
08:51AM 36.0650 -76.9530 215° Southwest 358 412 38,000  Level FlightAware
08:52AM 36.0160 -76.9970 216° Southwest 358 412 38,000  Level FlightAware
08:52AM 35.9660 -77.0410 215° Southwest 359 413 38,000  Level FlightAware
08:53AM 35.9140 -77.0860 215° Southwest 359 413 38,000  Level FlightAware
08:54AM 35.8580 -77.1350 215° Southwest 365 420 38,000  Level FlightAware
08:54AM 35.8150 -77.1730 216° Southwest 365 420 38,000  Level FlightAware
08:55AM 35.7690 -77.2130 215° Southwest 366 421 38,000  Level FlightAware
08:55AM 35.7200 -77.2560 215° Southwest 359 413 38,000  Level FlightAware
08:56AM 35.6660 -77.3030 215° Southwest 366 421 38,000  Level FlightAware
08:57AM 35.6660 -77.3030 215° Southwest 367 422 38,000  Level FlightAware
08:57AM 35.6130 -77.3500 216° Southwest 363 418 38,000  Level FlightAware
08:58AM 35.5160 -77.4500 220° Southwest 361 415 38,000  Level FlightAware
08:58AM 35.5200 -77.4460 39° Northeast 361 415 38,000  Level FlightAware
08:59AM 35.4760 -77.4910 220° Southwest 361 415 38,000  Level FlightAware
09:00AM 35.3740 -77.5960 220° Southwest 361 415 38,000  Level FlightAware
09:00AM 35.3240 -77.6470 220° Southwest 362 417 38,000  Level FlightAware
09:01AM 35.2790 -77.6930 220° Southwest 363 418 38,000  Level FlightAware
09:01AM 35.2320 -77.7410 220° Southwest 363 418 38,000  Level FlightAware
09:02AM 35.1940 -77.7800 220° Southwest 364 419 38,000  Level FlightAware
09:03AM 35.1510 -77.8240 220° Southwest 365 420 38,000  Level FlightAware
09:03AM 35.1020 -77.8730 219° Southwest 366 421 38,000  Level FlightAware
09:04AM 35.0580 -77.9180 220° Southwest 368 423 38,000  Level FlightAware
09:04AM 35.0150 -77.9620 220° Southwest 368 423 38,000  Level FlightAware
09:05AM 34.9480 -78.0290 219° Southwest 363 418 38,000  Level FlightAware
09:06AM 34.9080 -78.0690 219° Southwest 364 419 38,000  Level FlightAware
09:06AM 34.8640 -78.1140 220° Southwest 365 420 38,000  Level FlightAware
09:07AM 34.8180 -78.1600 219° Southwest 366 421 38,000  Level FlightAware
09:07AM 34.7700 -78.2080 219° Southwest 372 428 38,000  Level FlightAware
09:08AM 34.7140 -78.2650 220° Southwest 373 429 38,000  Level FlightAware
09:09AM 34.6620 -78.3170 219° Southwest 373 429 38,000  Level FlightAware
09:09AM 34.6130 -78.3660 219° Southwest 373 429 38,000  Level FlightAware
09:10AM 34.5720 -78.4070 219° Southwest 373 429 38,000  Level FlightAware
09:10AM 34.5220 -78.4570 219° Southwest 371 427 38,000  Level FlightAware
09:11AM 34.4730 -78.5050 219° Southwest 371 427 38,000  Level FlightAware
09:12AM 34.4670 -78.5110 220° Southwest 371 427 38,000  Level FlightAware
09:12AM 34.4200 -78.5580 220° Southwest 369 425 38,000  Level FlightAware
09:13AM 34.3840 -78.5940 220° Southwest 370 426 38,000  Level FlightAware
09:13AM 34.3330 -78.6450 220° Southwest 369 425 38,000  Level FlightAware
09:14AM 34.2720 -78.7050 219° Southwest 369 425 38,000  Level FlightAware
09:15AM 34.2280 -78.7480 219° Southwest 368 423 38,000  Level FlightAware
09:15AM 34.1880 -78.7880 220° Southwest 368 423 38,000  Level FlightAware
09:16AM 34.1540 -78.8210 219° Southwest 368 423 38,000  Level FlightAware
09:17AM 34.1020 -78.8720 219° Southwest 370 426 38,000  Level FlightAware
09:17AM 33.9740 -78.9980 219° Southwest 374 430 38,000  Level FlightAware
09:18AM 33.9270 -79.0440 219° Southwest 375 432 38,000  Level FlightAware
09:18AM 33.8810 -79.0890 219° Southwest 376 433 38,000  Level FlightAware
09:19AM 33.8330 -79.1360 219° Southwest 376 433 38,000  Level FlightAware
09:20AM 33.7920 -79.1760 219° Southwest 377 434 38,000  Level FlightAware
09:20AM 33.7430 -79.2230 219° Southwest 377 434 38,000  Level FlightAware
09:21AM 33.7010 -79.2640 219° Southwest 378 435 38,000  Level FlightAware
09:21AM 33.6420 -79.3210 219° Southwest 379 436 38,000  Level FlightAware
09:22AM 33.5980 -79.3640 219° Southwest 381 438 38,000  Level FlightAware
09:23AM 33.5470 -79.4130 219° Southwest 381 438 38,000  Level FlightAware
09:23AM 33.4970 -79.4620 219° Southwest 381 438 38,000  Level FlightAware
09:24AM 33.4530 -79.5040 219° Southwest 382 440 38,000  Level FlightAware
09:24AM 33.4030 -79.5520 219° Southwest 382 440 38,000  Level FlightAware
09:25AM 33.3470 -79.6060 219° Southwest 382 440 38,000  Level FlightAware
09:26AM 33.2910 -79.6600 219° Southwest 382 440 38,000  Level FlightAware
09:26AM 33.2370 -79.7110 218° Southwest 382 440 38,000  Level FlightAware
09:27AM 33.1920 -79.7540 219° Southwest 382 440 38,000  Level FlightAware
09:27AM 33.1440 -79.8000 219° Southwest 383 441 38,000  Level FlightAware
09:28AM 33.0930 -79.8480 218° Southwest 382 440 38,000  Level FlightAware
09:29AM 33.0420 -79.8970 219° Southwest 382 440 38,000  Level FlightAware
09:29AM 33.0020 -79.9360 219° Southwest 384 442 38,000  Level FlightAware
09:30AM 32.9500 -79.9850 218° Southwest 384 442 38,000  Level FlightAware
09:30AM 32.8980 -80.0340 218° Southwest 387 445 38,000  Level FlightAware
09:31AM 32.8440 -80.0750 213° Southwest 392 451 38,000  Level FlightAware
09:32AM 32.7950 -80.1110 212° Southwest 393 452 38,000  Level FlightAware
09:32AM 32.7390 -80.1530 212° Southwest 394 453 38,000  Level FlightAware
09:33AM 32.6840 -80.1930 211° Southwest 395 455 38,000  Level FlightAware
09:33AM 32.6390 -80.2260 212° Southwest 394 453 38,000  Level FlightAware
09:34AM 32.5770 -80.2710 211° Southwest 394 453 38,000  Level FlightAware
09:34AM 32.5200 -80.3140 212° Southwest 395 455 38,000  Level FlightAware
09:35AM 32.4690 -80.3510 211° Southwest 395 455 38,000  Level FlightAware
09:36AM 32.4130 -80.3920 212° Southwest 394 453 38,000  Level FlightAware
09:36AM 32.3620 -80.4290 212° Southwest 392 451 38,000  Level FlightAware
09:37AM 32.3100 -80.4670 212° Southwest 390 449 38,000  Level FlightAware
09:37AM 32.2510 -80.5100 212° Southwest 387 445 38,000 -540 Level FlightAware
09:38AM 32.1950 -80.5510 212° Southwest 388 447 37,400 -960 Descending FlightAware
09:39AM 32.1450 -80.5870 211° Southwest 390 449 36,900 -900 Descending FlightAware
09:39AM 32.0920 -80.6250 211° Southwest 390 449 36,400 -960 Descending FlightAware
09:40AM 32.0350 -80.6670 212° Southwest 390 449 35,800 -1,080 Descending FlightAware
09:40AM 31.9850 -80.7030 211° Southwest 391 450 35,200 -960 Descending FlightAware
09:41AM 31.9290 -80.7430 211° Southwest 393 452 34,700 -960 Descending FlightAware
09:41AM 31.8720 -80.7840 211° Southwest 391 450 34,100 -660 Descending FlightAware
09:42AM 31.8210 -80.8210 212° Southwest 391 450 34,000 -120 Descending FlightAware
09:43AM 31.7630 -80.8630 212° Southwest 391 450 34,000  Level FlightAware
09:43AM 31.7120 -80.8990 211° Southwest 392 451 34,000  Level FlightAware
09:44AM 31.6740 -80.9150 200° South 403 464 34,000  Level FlightAware
09:44AM 31.6120 -80.9300 192° South 408 470 34,000  Level FlightAware
09:45AM 31.5480 -80.9450 191° South 408 470 34,000  Level FlightAware
09:45AM 31.4840 -80.9600 191° South 410 472 34,000  Level FlightAware
09:46AM 31.4150 -80.9770 192° South 411 473 34,000  Level FlightAware
09:46AM 31.3490 -80.9920 191° South 413 475 34,000  Level FlightAware
09:47AM 31.2850 -81.0070 191° South 414 476 34,000  Level FlightAware
09:48AM 31.2200 -81.0220 191° South 414 476 34,000  Level FlightAware
09:48AM 31.1250 -81.0430 191° South 415 478 34,000  Level FlightAware
09:49AM 31.0630 -81.0540 189° South 423 487 34,000  Level FlightAware
09:50AM 30.9890 -81.0560 181° South 426 490 34,000  Level FlightAware
09:50AM 30.9240 -81.0580 182° South 426 490 34,000  Level FlightAware
09:51AM 30.8560 -81.0600 181° South 427 491 34,000  Level FlightAware
09:51AM 30.7850 -81.0630 182° South 427 491 34,000  Level FlightAware
09:52AM 30.7090 -81.0650 181° South 428 493 34,000  Level FlightAware
09:52AM 30.6500 -81.0670 182° South 428 493 34,000  Level FlightAware
09:53AM 30.5750 -81.0700 182° South 428 493 34,000  Level FlightAware
09:54AM 30.5030 -81.0720 181° South 429 494 34,000  Level FlightAware
09:54AM 30.4340 -81.0750 182° South 429 494 34,000  Level FlightAware
09:55AM 30.3650 -81.0770 181° South 429 494 34,000  Level FlightAware
09:55AM 30.2920 -81.0790 181° South 429 494 34,000  Level FlightAware
09:56AM 30.2250 -81.0820 182° South 434 499 34,000  Level FlightAware
09:57AM 30.1510 -81.0840 181° South 438 504 34,000  Level FlightAware
09:57AM 30.0870 -81.0860 182° South 439 505 34,000 -960 Level FlightAware
09:58AM 30.0110 -81.0890 182° South 439 505 32,900 -2,520 Descending FlightAware
09:58AM 29.9400 -81.0920 182° South 438 504 31,000 -3,360 Descending FlightAware
09:59AM 29.8710 -81.0940 181° South 431 496 29,100 -3,480 Descending FlightAware
10:00AM 29.7970 -81.0960 181° South 425 489 26,900 -3,300 Descending FlightAware
10:00AM 29.7380 -81.0980 182° South 420 483 25,300 -2,640 Descending FlightAware
10:01AM 29.6640 -81.1000 181° South 407 468 23,900 -2,220 Descending FlightAware
10:01AM 29.5990 -81.1020 182° South 401 461 22,700 -2,220 Descending FlightAware
10:02AM 29.5370 -81.1050 182° South 401 461 21,400 -2,340 Descending FlightAware
10:02AM 29.4740 -81.1070 182° South 393 452 20,100 -2,400 Descending FlightAware
10:03AM 29.4120 -81.1090 182° South 386 444 18,700 -2,340 Descending FlightAware
10:04AM 29.3470 -81.1110 182° South 380 437 17,300 -2,340 Descending FlightAware
10:04AM 29.2740 -81.1100 179° South 376 433 15,700 -2,340 Descending FlightAware
10:05AM 29.2190 -81.1060 176° South 371 427 14,500 -2,340 Descending FlightAware
10:05AM 29.1510 -81.1000 176° South 366 421 13,000 -1,740 Descending FlightAware
10:06AM 29.0950 -81.0960 176° South 343 395 12,400 -840 Descending FlightAware
10:07AM 29.0390 -81.0910 176° South 318 366 12,000 -480 Descending FlightAware
10:07AM 28.9960 -81.0860 174° South 309 356 11,900 -360 Descending FlightAware
10:08AM 28.9400 -81.0760 171° South 306 352 11,600 -240 Descending FlightAware
10:09AM 28.8970 -81.0690 172° South 306 352 11,600  Level FlightAware
10:09AM 28.8530 -81.0610 171° South 306 352 11,600 -2,100 Level FlightAware
10:10AM 28.7980 -81.0320 155° Southeast 255 293 9,100 -2,460 Descending FlightAware
10:10AM 28.7730 -81.0230 162° South 255 293 9,100  Level FlightAware
10:11AM 28.7500 -81.0140 161° South 255 293 9,100  Level FlightAware
10:11AM 28.7140 -81.0010 162° South 255 293 9,100 -1,920 Level FlightAware
10:11AM 28.7590 -81.1010 297° West 228 262 7,700 -4,140 Descending FlightAware
10:12AM 28.7560 -81.1350 264° West 227 261 7,100 -1,620 Descending FlightAware
10:12AM 28.7520 -81.1620 260° West 222 255 6,600 -1,440 Descending FlightAware
10:12AM 28.7490 -81.1890 263° West 220 253 6,100 -1,200 Descending FlightAware
10:13AM 28.7460 -81.2130 262° West 210 242 5,700 -1,140 Descending FlightAware
10:13AM 28.7440 -81.2300 262° West 207 238 5,400 -1,080 Descending FlightAware
10:13AM 28.7410 -81.2580 263° West 204 235 5,000 -960 Descending FlightAware
10:14AM 28.7390 -81.2670 256° West 200 230 4,900 -300 Descending FlightAware
10:14AM 28.7330 -81.2770 236° Southwest 196 226 4,900  Level FlightAware
10:14AM 28.7270 -81.2800 204° Southwest 196 226 4,900  Level FlightAware
10:14AM 28.7210 -81.2810 188° South 197 227 4,900 -660 Level FlightAware
10:14AM 28.7010 -81.2850 190° South 193 222 4,600 -900 Descending FlightAware
10:15AM 28.6870 -81.2850 180° South 188 216 4,300 -960 Descending FlightAware
10:15AM 28.6670 -81.2850 180° South 182 209 4,000 -600 Descending FlightAware
10:15AM 28.6490 -81.2850 180° South 176 203 3,900 -180 Descending FlightAware
10:16AM 28.6350 -81.2840 176° South 174 200 3,900 -540 Level FlightAware
10:16AM 28.6140 -81.2840 180° South 178 205 3,500 -1,260 Descending FlightAware
10:17AM 28.5930 -81.2840 180° South 183 211 2,900 -720 Descending FlightAware
10:17AM 28.5700 -81.2840 180° South 183 211 2,900 -900 Level FlightAware
10:17AM 28.5480 -81.2840 180° South 163 188 2,100 -1,560 Descending FlightAware
10:18AM 28.5320 -81.2830 177° South 155 178 1,700 -840 Descending FlightAware
10:18AM 28.5060 -81.2830 180° South 154 177 1,300 -720 Descending FlightAware
10:19AM 28.4950 -81.2830 180° South 155 178 1,100 -300 Descending FlightAware
10:19AM 28.4790 -81.2830 180° South 155 178 1,100  Level FlightAware
10:27AM 28.4294 -81.3090 336° Northwest  Level Estimated
10:28AM 28.4294 -81.3090 336° Northwest  Level Estimated
10:29AM 28.4294 -81.3090 336° Northwest  Level Estimated
10:30AM 28.4294 -81.3090 336° Northwest  Level Estimated
10:31AM 28.4294 -81.3090 336° Northwest  Level Estimated